createdAt,value
2023-04-07T00:01:00.158Z,9.00
2023-04-07T00:03:26.527Z,9.98
2023-04-07T00:05:52.909Z,8.52
2023-04-07T00:08:19.158Z,7.88
2023-04-07T00:10:45.553Z,7.95
2023-04-07T00:13:11.775Z,8.18
2023-04-07T00:15:38.060Z,7.80
2023-04-07T00:18:04.409Z,9.10
2023-04-07T00:20:30.684Z,8.05
2023-04-07T00:22:56.871Z,7.90
2023-04-07T00:25:23.153Z,8.45
2023-04-07T00:27:49.372Z,8.18
2023-04-07T00:30:15.660Z,8.45
2023-04-07T00:32:41.943Z,9.38
2023-04-07T00:35:08.360Z,8.50
2023-04-07T00:37:34.609Z,8.15
2023-04-07T00:40:00.921Z,8.43
2023-04-07T00:42:27.198Z,8.20
2023-04-07T00:44:53.426Z,8.50
2023-04-07T00:47:19.985Z,8.95
2023-04-07T00:49:46.465Z,8.65
2023-04-07T00:52:12.749Z,8.43
2023-04-07T00:54:41.040Z,7.57
2023-04-07T00:57:07.281Z,8.18
2023-04-07T00:59:34.452Z,8.35
2023-04-07T01:02:05.887Z,8.27
2023-04-07T01:04:38.995Z,8.38
2023-04-07T01:07:09.717Z,8.60
2023-04-07T01:09:45.412Z,8.15
2023-04-07T01:12:21.006Z,7.70
2023-04-07T01:14:50.689Z,8.15
2023-04-07T01:17:17.327Z,9.00
2023-04-07T01:19:47.194Z,7.75
2023-04-07T01:22:15.244Z,8.90
2023-04-07T01:25:00.382Z,7.97
2023-04-07T01:27:36.253Z,9.35
2023-04-07T01:30:03.355Z,9.13
2023-04-07T01:32:30.533Z,9.75
2023-04-07T01:34:57.819Z,8.85
2023-04-07T01:37:26.327Z,9.38
2023-04-07T01:39:52.950Z,8.55
2023-04-07T01:42:19.980Z,8.65
2023-04-07T01:47:12.494Z,9.23
2023-04-07T01:49:40.608Z,8.73
2023-04-07T01:52:07.289Z,9.32
2023-04-07T01:54:33.756Z,9.82
2023-04-07T01:56:59.953Z,8.90
2023-04-07T01:59:26.162Z,9.25
2023-04-07T02:01:52.605Z,8.65
2023-04-07T02:04:32.357Z,8.52
2023-04-07T02:07:01.521Z,8.93
2023-04-07T02:09:29.972Z,9.48
2023-04-07T02:11:58.104Z,9.38
2023-04-07T02:14:24.867Z,9.68
2023-04-07T02:16:52.644Z,10.05
2023-04-07T02:19:19.177Z,10.40
2023-04-07T02:21:46.067Z,10.48
2023-04-07T02:26:38.459Z,10.80
2023-04-07T02:29:05.174Z,12.07
2023-04-07T02:31:31.652Z,11.70
2023-04-07T02:33:57.949Z,13.20
2023-04-07T02:36:24.219Z,11.70
2023-04-07T02:38:50.525Z,11.35
2023-04-07T02:41:16.787Z,13.30
2023-04-07T02:43:43.004Z,26.83
2023-04-07T02:46:09.388Z,11.32
2023-04-07T02:48:35.752Z,12.25
2023-04-07T02:51:01.954Z,11.07
2023-04-07T02:53:28.219Z,10.45
2023-04-07T02:55:54.463Z,11.15
2023-04-07T02:58:20.994Z,9.82
2023-04-07T03:00:49.097Z,10.43
2023-04-07T03:03:16.209Z,10.45
2023-04-07T03:05:42.544Z,10.07
2023-04-07T03:08:09.534Z,11.10
2023-04-07T03:10:36.662Z,10.48
2023-04-07T03:13:02.873Z,10.27
2023-04-07T03:15:29.065Z,11.18
2023-04-07T03:17:55.425Z,11.32
2023-04-07T03:20:21.637Z,11.32
2023-04-07T03:22:47.947Z,11.55
2023-04-07T03:25:14.159Z,11.32
2023-04-07T03:27:40.540Z,11.90
2023-04-07T03:30:07.056Z,11.23
2023-04-07T03:32:33.300Z,10.88
2023-04-07T03:34:59.520Z,11.48
2023-04-07T03:37:25.876Z,11.88
2023-04-07T03:39:52.171Z,11.90
2023-04-07T03:42:18.474Z,11.73
2023-04-07T03:44:44.729Z,11.98
2023-04-07T03:47:10.983Z,12.20
2023-04-07T03:49:38.336Z,11.55
2023-04-07T03:52:05.138Z,11.35
2023-04-07T03:54:31.453Z,12.82
2023-04-07T03:56:57.812Z,12.32
2023-04-07T03:59:24.106Z,11.43
2023-04-07T04:01:50.342Z,12.45
2023-04-07T04:04:16.775Z,11.80
2023-04-07T04:06:43.305Z,11.43
2023-04-07T04:09:09.562Z,11.32
2023-04-07T04:11:36.407Z,10.80
2023-04-07T04:14:02.657Z,11.75
2023-04-07T04:16:28.881Z,11.38
2023-04-07T04:18:55.374Z,11.70
2023-04-07T04:21:21.593Z,12.05
2023-04-07T04:23:47.846Z,11.50
2023-04-07T04:26:14.030Z,12.63
2023-04-07T04:28:40.288Z,14.00
2023-04-07T04:31:06.550Z,58.28
2023-04-07T04:33:33.065Z,24.10
2023-04-07T04:35:59.269Z,17.33
2023-04-07T04:38:25.512Z,12.80
2023-04-07T04:40:51.712Z,12.10
2023-04-07T04:43:17.969Z,12.38
2023-04-07T04:45:44.234Z,12.82
2023-04-07T04:48:11.360Z,12.68
2023-04-07T04:50:37.568Z,11.55
2023-04-07T04:53:03.769Z,11.60
2023-04-07T04:55:29.984Z,11.15
2023-04-07T04:57:56.245Z,11.73
2023-04-07T05:00:22.524Z,12.55
2023-04-07T05:02:48.987Z,12.60
2023-04-07T05:05:15.527Z,13.00
2023-04-07T05:07:42.096Z,13.18
2023-04-07T05:10:08.601Z,12.98
2023-04-07T05:12:35.154Z,11.25
2023-04-07T05:15:01.579Z,11.95
2023-04-07T05:17:27.836Z,11.20
2023-04-07T05:19:54.156Z,13.30
2023-04-07T05:22:20.646Z,12.70
2023-04-07T05:24:46.840Z,11.82
2023-04-07T05:27:13.090Z,12.52
2023-04-07T05:29:39.332Z,12.38
2023-04-07T05:32:05.845Z,11.27
2023-04-07T05:34:32.240Z,11.73
2023-04-07T05:36:58.438Z,12.15
2023-04-07T05:39:24.752Z,11.95
2023-04-07T05:41:51.639Z,15.20
2023-04-07T05:46:43.995Z,12.77
2023-04-07T05:49:19.480Z,13.02
2023-04-07T05:51:47.561Z,11.45
2023-04-07T05:54:15.189Z,11.60
2023-04-07T05:56:41.393Z,11.95
2023-04-07T05:59:07.627Z,11.30
2023-04-07T06:01:33.839Z,10.80
2023-04-07T06:04:01.483Z,10.98
2023-04-07T06:06:28.572Z,10.80
2023-04-07T06:08:54.772Z,10.88
2023-04-07T06:11:21.232Z,11.05
2023-04-07T06:13:47.872Z,9.90
2023-04-07T06:16:14.342Z,9.95
2023-04-07T06:18:40.881Z,10.90
2023-04-07T06:21:07.292Z,10.80
2023-04-07T06:23:33.516Z,10.80
2023-04-07T06:25:59.726Z,10.40
2023-04-07T06:28:26.146Z,10.90
2023-04-07T06:30:52.410Z,10.38
2023-04-07T06:33:19.525Z,10.10
2023-04-07T06:35:45.866Z,10.60
2023-04-07T06:38:12.305Z,10.15
2023-04-07T06:40:38.576Z,10.50
2023-04-07T06:43:04.840Z,10.50
2023-04-07T06:45:31.032Z,10.15
2023-04-07T06:47:57.334Z,11.52
2023-04-07T06:50:23.657Z,10.02
2023-04-07T06:52:49.863Z,10.02
2023-04-07T06:55:16.216Z,10.95
2023-04-07T06:57:42.496Z,10.10
2023-04-07T07:00:10.053Z,10.20
2023-04-07T07:02:36.386Z,9.95
2023-04-07T07:05:04.633Z,9.35
2023-04-07T07:07:30.910Z,9.75
2023-04-07T07:09:57.115Z,10.25
2023-04-07T07:12:23.340Z,9.90
2023-04-07T07:14:49.539Z,9.55
2023-04-07T07:17:16.294Z,8.27
2023-04-07T07:19:43.044Z,8.77
2023-04-07T07:22:09.293Z,7.97
2023-04-07T07:24:35.554Z,11.93
2023-04-07T07:27:02.460Z,10.90
2023-04-07T07:31:56.258Z,6.40
2023-04-07T07:34:22.575Z,6.60
2023-04-07T07:36:48.789Z,6.78
2023-04-07T07:39:15.254Z,6.07
2023-04-07T07:41:41.838Z,6.68
2023-04-07T07:44:08.202Z,5.95
2023-04-07T07:46:34.477Z,7.68
2023-04-07T07:49:00.699Z,8.05
2023-04-07T07:51:27.937Z,6.47
2023-04-07T07:53:54.166Z,6.32
2023-04-07T07:56:21.373Z,7.03
2023-04-07T07:58:47.612Z,6.20
2023-04-07T08:01:13.834Z,6.85
2023-04-07T08:03:40.602Z,6.53
2023-04-07T08:06:09.243Z,5.47
2023-04-07T08:08:35.503Z,4.43
2023-04-07T08:11:01.816Z,8.85
2023-04-07T08:13:28.013Z,10.88
2023-04-07T08:15:54.282Z,3.85
2023-04-07T08:18:20.659Z,8.80
2023-04-07T08:20:46.917Z,6.15
2023-04-07T08:23:13.158Z,6.38
2023-04-07T08:25:42.456Z,7.63
2023-04-07T08:28:08.678Z,4.05
2023-04-07T08:30:35.022Z,3.55
2023-04-07T08:33:01.386Z,5.75
2023-04-07T08:35:27.771Z,5.25
2023-04-07T08:37:53.990Z,6.25
2023-04-07T08:40:20.270Z,7.95
2023-04-07T08:42:47.424Z,7.13
2023-04-07T08:45:13.866Z,3.47
2023-04-07T08:47:41.436Z,3.95
2023-04-07T08:50:09.824Z,7.93
2023-04-07T08:52:44.366Z,6.90
2023-04-07T08:55:10.935Z,6.40
2023-04-07T08:57:37.163Z,9.18
2023-04-07T09:00:06.587Z,13.68
2023-04-07T09:02:36.272Z,4.85
2023-04-07T09:05:04.276Z,2.97
2023-04-07T09:07:31.382Z,4.05
2023-04-07T09:09:57.599Z,3.50
2023-04-07T09:12:23.893Z,4.82
2023-04-07T09:14:50.135Z,3.80
2023-04-07T09:17:16.364Z,9.25
2023-04-07T09:19:42.573Z,11.85
2023-04-07T09:22:12.358Z,4.40
2023-04-07T09:24:38.792Z,5.65
2023-04-07T09:27:17.000Z,5.32
2023-04-07T09:29:44.767Z,8.80
2023-04-07T09:32:11.394Z,5.68
2023-04-07T09:34:40.938Z,4.90
2023-04-07T09:37:09.439Z,4.57
2023-04-07T09:39:48.948Z,3.13
2023-04-07T09:42:15.221Z,4.18
2023-04-07T09:44:41.862Z,2.60
2023-04-07T09:47:08.263Z,11.68
2023-04-07T09:49:48.547Z,2.65
2023-04-07T09:52:14.762Z,2.60
2023-04-07T09:54:41.679Z,3.50
2023-04-07T09:59:35.479Z,2.70
2023-04-07T10:02:02.359Z,3.20
2023-04-07T10:06:56.934Z,3.25
2023-04-07T10:09:23.665Z,3.05
2023-04-07T10:11:50.335Z,3.38
2023-04-07T10:14:17.469Z,3.95
2023-04-07T10:16:44.084Z,4.55
2023-04-07T10:19:10.754Z,3.47
2023-04-07T10:21:39.191Z,2.92
2023-04-07T10:24:15.829Z,4.68
2023-04-07T10:26:42.459Z,4.50
2023-04-07T10:29:11.538Z,4.25
2023-04-07T10:31:38.799Z,23.23
2023-04-07T10:34:05.744Z,7.45
2023-04-07T10:39:07.446Z,16.15
2023-04-07T10:41:40.393Z,11.40
2023-04-07T10:44:08.031Z,5.03
2023-04-07T10:46:49.411Z,8.70
2023-04-07T10:49:19.232Z,18.13
2023-04-07T10:52:05.499Z,16.25
2023-04-07T10:54:31.913Z,2.30
2023-04-07T10:57:10.188Z,3.63
2023-04-07T10:59:37.235Z,1.58
2023-04-07T11:02:12.406Z,1.70
2023-04-07T11:04:39.537Z,2.22
2023-04-07T11:07:07.289Z,1.90
2023-04-07T11:09:33.674Z,2.05
2023-04-07T11:11:59.953Z,2.70
2023-04-07T11:14:30.548Z,7.97
2023-04-07T11:16:56.808Z,4.35
2023-04-07T11:19:23.454Z,4.60
2023-04-07T11:21:50.071Z,4.72
2023-04-07T11:24:37.543Z,8.65
2023-04-07T11:27:03.897Z,5.05
2023-04-07T11:29:34.065Z,5.50
2023-04-07T11:32:01.682Z,4.82
2023-04-07T11:34:31.464Z,4.43
2023-04-07T11:36:59.826Z,6.97
2023-04-07T11:39:33.458Z,4.82
2023-04-07T11:41:59.668Z,7.50
2023-04-07T11:44:26.676Z,7.22
2023-04-07T11:49:20.542Z,4.50
2023-04-07T11:51:47.121Z,22.60
2023-04-07T11:54:13.647Z,49.47
2023-04-07T11:56:44.575Z,4.93
2023-04-07T11:59:19.080Z,3.95
2023-04-07T12:01:45.440Z,4.53
2023-04-07T12:04:16.225Z,4.05
2023-04-07T12:06:42.978Z,4.18
2023-04-07T12:09:24.451Z,3.72
2023-04-07T12:11:50.688Z,3.55
2023-04-07T12:14:16.938Z,2.72
2023-04-07T12:16:43.227Z,2.50
2023-04-07T12:19:09.526Z,2.22
2023-04-07T12:21:35.808Z,2.55
2023-04-07T12:24:02.329Z,2.45
2023-04-07T12:26:28.710Z,2.40
2023-04-07T12:28:55.416Z,1.70
2023-04-07T12:31:21.765Z,2.13
2023-04-07T12:33:48.420Z,2.28
2023-04-07T12:36:14.853Z,7.55
2023-04-07T12:38:41.059Z,3.40
2023-04-07T12:41:07.308Z,4.32
2023-04-07T12:43:33.908Z,3.30
2023-04-07T12:46:00.266Z,2.70
2023-04-07T12:48:29.501Z,2.38
2023-04-07T12:50:55.742Z,2.45
2023-04-07T12:53:22.830Z,2.55
2023-04-07T12:55:50.360Z,5.25
2023-04-07T12:58:17.527Z,2.53
2023-04-07T13:00:43.819Z,3.30
2023-04-07T13:03:10.182Z,3.10
2023-04-07T13:05:36.598Z,3.53
2023-04-07T13:08:03.219Z,4.22
2023-04-07T13:10:29.441Z,4.45
2023-04-07T13:12:55.746Z,3.60
2023-04-07T13:15:21.979Z,3.10
2023-04-07T13:17:48.306Z,2.60
2023-04-07T13:20:19.382Z,2.50
2023-04-07T13:22:50.620Z,2.28
2023-04-07T13:25:22.012Z,2.00
2023-04-07T13:27:48.280Z,1.90
2023-04-07T13:30:14.813Z,2.10
2023-04-07T13:32:41.723Z,3.38
2023-04-07T13:37:34.076Z,3.22
2023-04-07T13:40:00.333Z,2.25
2023-04-07T13:42:26.691Z,1.40
2023-04-07T13:44:54.443Z,0.82
2023-04-07T13:47:21.404Z,1.00
2023-04-07T13:49:48.018Z,1.83
2023-04-07T13:52:14.528Z,0.80
2023-04-07T13:54:41.050Z,0.60
2023-04-07T13:57:08.192Z,2.22
2023-04-07T13:59:34.442Z,2.08
2023-04-07T14:02:01.127Z,1.52
2023-04-07T14:04:27.746Z,2.45
2023-04-07T14:06:54.144Z,7.40
2023-04-07T14:09:20.781Z,4.47
2023-04-07T14:11:47.009Z,3.35
2023-04-07T14:14:13.331Z,1.33
2023-04-07T14:16:39.593Z,1.13
2023-04-07T14:19:06.864Z,2.38
2023-04-07T14:21:33.067Z,1.70
2023-04-07T14:23:59.911Z,1.08
2023-04-07T14:26:27.008Z,2.20
2023-04-07T14:28:53.630Z,1.45
2023-04-07T14:31:19.916Z,1.58
2023-04-07T14:33:46.549Z,1.90
2023-04-07T14:36:17.137Z,1.42
2023-04-07T14:38:43.700Z,1.30
2023-04-07T14:41:10.620Z,1.58
2023-04-07T14:46:03.088Z,1.17
2023-04-07T14:48:29.438Z,8.48
2023-04-07T14:51:08.162Z,13.68
2023-04-07T14:53:36.590Z,2.58
2023-04-07T14:56:04.362Z,2.22
2023-04-07T14:58:31.366Z,1.65
2023-04-07T15:03:24.081Z,3.67
2023-04-07T15:05:50.908Z,1.40
2023-04-07T15:08:17.134Z,2.05
2023-04-07T15:10:43.434Z,1.60
2023-04-07T15:13:09.695Z,1.20
2023-04-07T15:15:35.934Z,0.90
2023-04-07T15:18:03.683Z,1.20
2023-04-07T15:20:30.406Z,1.88
2023-04-07T15:22:56.809Z,1.48
2023-04-07T15:25:23.119Z,1.38
2023-04-07T15:27:49.343Z,1.30
2023-04-07T15:30:15.753Z,1.75
2023-04-07T15:32:42.014Z,1.50
2023-04-07T15:35:08.497Z,2.83
2023-04-07T15:37:34.783Z,2.10
2023-04-07T15:40:01.002Z,2.30
2023-04-07T15:42:27.212Z,2.63
2023-04-07T15:44:53.431Z,2.47
2023-04-07T15:47:19.648Z,2.95
2023-04-07T15:49:45.912Z,2.42
2023-04-07T15:52:13.658Z,3.17
2023-04-07T15:54:39.883Z,2.80
2023-04-07T15:57:06.104Z,2.58
2023-04-07T15:59:32.380Z,1.80
2023-04-07T16:01:58.769Z,2.03
2023-04-07T16:04:25.188Z,2.30
2023-04-07T16:06:51.446Z,1.75
2023-04-07T16:09:17.671Z,2.13
2023-04-07T16:11:43.886Z,2.92
2023-04-07T16:14:10.293Z,2.08
2023-04-07T16:16:37.037Z,1.90
2023-04-07T16:21:29.616Z,2.35
2023-04-07T16:23:55.958Z,2.25
2023-04-07T16:26:22.325Z,2.38
2023-04-07T16:28:49.164Z,2.60
2023-04-07T16:33:41.999Z,2.40
2023-04-07T16:36:08.268Z,2.13
2023-04-07T16:38:34.557Z,2.90
2023-04-07T16:41:03.961Z,3.65
2023-04-07T16:43:31.135Z,5.00
2023-04-07T16:45:59.912Z,4.57
2023-04-07T16:48:26.505Z,4.82
2023-04-07T16:50:52.719Z,4.13
2023-04-07T16:53:21.083Z,4.97
2023-04-07T16:55:47.925Z,5.13
2023-04-07T16:58:18.592Z,4.75
2023-04-07T17:00:44.988Z,4.00
2023-04-07T17:03:13.402Z,3.97
2023-04-07T17:05:39.966Z,4.18
2023-04-07T17:08:06.184Z,4.40
2023-04-07T17:10:32.395Z,4.53
2023-04-07T17:12:58.639Z,5.45
2023-04-07T17:15:24.985Z,4.63
2023-04-07T17:17:51.342Z,9.10
2023-04-07T17:20:17.659Z,34.15
2023-04-07T17:22:44.744Z,17.00
2023-04-07T17:25:10.987Z,8.70
2023-04-07T17:27:37.194Z,13.20
2023-04-07T17:30:03.898Z,6.22
2023-04-07T17:32:30.391Z,5.63
2023-04-07T17:34:56.754Z,6.70
2023-04-07T17:37:22.950Z,5.13
2023-04-07T17:39:49.180Z,5.53
2023-04-07T17:42:15.564Z,5.90
2023-04-07T17:44:42.879Z,5.68
2023-04-07T17:47:09.529Z,5.60
2023-04-07T17:49:35.786Z,5.40
2023-04-07T17:52:02.689Z,5.72
2023-04-07T17:54:29.181Z,5.97
2023-04-07T17:56:55.533Z,8.10
2023-04-07T17:59:21.737Z,8.15
2023-04-07T18:01:48.004Z,7.68
2023-04-07T18:04:14.916Z,6.43
2023-04-07T18:09:07.443Z,7.53
2023-04-07T18:11:33.917Z,6.63
2023-04-07T18:14:00.419Z,8.85
2023-04-07T18:16:26.770Z,12.32
2023-04-07T18:18:53.031Z,6.90
2023-04-07T18:21:19.278Z,7.20
2023-04-07T18:23:45.596Z,12.60
2023-04-07T18:26:11.880Z,8.35
2023-04-07T18:28:38.169Z,9.60
2023-04-07T18:31:06.375Z,9.57
2023-04-07T18:33:33.160Z,7.40
2023-04-07T18:36:00.694Z,6.25
2023-04-07T18:38:26.967Z,4.43
2023-04-07T18:40:53.189Z,5.78
2023-04-07T18:43:19.412Z,5.93
2023-04-07T18:45:45.620Z,5.13
2023-04-07T18:48:11.841Z,4.90
2023-04-07T18:50:38.056Z,5.78
2023-04-07T18:53:04.313Z,5.80
2023-04-07T18:55:30.570Z,5.88
2023-04-07T18:57:57.427Z,6.53
2023-04-07T19:02:49.946Z,6.07
2023-04-07T19:05:16.440Z,6.53
2023-04-07T19:07:42.704Z,5.80
2023-04-07T19:10:09.289Z,4.03
2023-04-07T19:12:35.809Z,3.75
2023-04-07T19:15:02.050Z,3.78
2023-04-07T19:17:29.640Z,3.88
2023-04-07T19:19:56.222Z,2.95
2023-04-07T19:22:22.770Z,3.00
2023-04-07T19:24:48.966Z,3.13
2023-04-07T19:27:15.185Z,3.30
2023-04-07T19:29:41.489Z,4.75
2023-04-07T19:32:07.835Z,4.03
2023-04-07T19:34:34.129Z,5.05
2023-04-07T19:37:00.657Z,6.57
2023-04-07T19:39:27.101Z,4.35
2023-04-07T19:41:53.473Z,5.00
2023-04-07T19:44:19.738Z,3.35
2023-04-07T19:46:45.995Z,4.40
2023-04-07T19:49:12.217Z,4.25
2023-04-07T19:51:38.446Z,5.53
2023-04-07T19:54:04.651Z,4.68
2023-04-07T19:56:31.188Z,4.55
2023-04-07T19:58:57.441Z,4.07
2023-04-07T20:01:23.706Z,4.22
2023-04-07T20:03:50.052Z,5.82
2023-04-07T20:06:17.103Z,5.15
2023-04-07T20:11:12.581Z,4.47
2023-04-07T20:13:39.275Z,3.85
2023-04-07T20:16:05.602Z,4.63
2023-04-07T20:18:32.168Z,4.80
2023-04-07T20:21:02.509Z,4.38
2023-04-07T20:23:28.793Z,5.30
2023-04-07T20:25:55.010Z,5.50
2023-04-07T20:28:21.994Z,5.57
2023-04-07T20:33:14.509Z,6.55
2023-04-07T20:35:40.934Z,5.85
2023-04-07T20:38:07.621Z,5.20
2023-04-07T20:40:34.296Z,5.35
2023-04-07T20:43:00.539Z,4.63
2023-04-07T20:45:27.482Z,4.60
2023-04-07T20:50:20.930Z,4.28
2023-04-07T20:55:13.570Z,4.20
2023-04-07T20:57:39.921Z,4.60
2023-04-07T21:00:06.694Z,7.85
2023-04-07T21:02:33.170Z,13.52
2023-04-07T21:04:59.489Z,11.70
2023-04-07T21:07:25.794Z,9.25
2023-04-07T21:09:52.023Z,7.70
2023-04-07T21:12:18.245Z,4.22
2023-04-07T21:14:44.729Z,4.78
2023-04-07T21:17:11.017Z,6.43
2023-04-07T21:19:37.255Z,5.10
2023-04-07T21:22:04.721Z,4.40
2023-04-07T21:24:31.968Z,4.63
2023-04-07T21:26:58.225Z,4.22
2023-04-07T21:29:24.561Z,4.15
2023-04-07T21:31:50.788Z,4.20
2023-04-07T21:34:17.058Z,4.85
2023-04-07T21:36:43.583Z,3.78
2023-04-07T21:39:09.898Z,4.07
2023-04-07T21:41:36.477Z,4.25
2023-04-07T21:44:02.756Z,4.38
2023-04-07T21:46:29.117Z,4.18
2023-04-07T21:48:55.731Z,4.38
2023-04-07T21:51:22.569Z,4.75
2023-04-07T21:53:48.813Z,4.22
2023-04-07T21:56:15.051Z,5.03
2023-04-07T21:58:41.897Z,4.60
2023-04-07T22:01:08.363Z,4.90
2023-04-07T22:03:34.792Z,4.50
2023-04-07T22:06:01.145Z,4.20
2023-04-07T22:08:27.426Z,5.45
2023-04-07T22:10:53.684Z,5.20
2023-04-07T22:13:19.998Z,5.25
2023-04-07T22:15:46.294Z,4.65
2023-04-07T22:18:13.571Z,4.80
2023-04-07T22:20:39.902Z,4.50
2023-04-07T22:23:06.445Z,5.03
2023-04-07T22:25:32.648Z,4.88
2023-04-07T22:27:59.136Z,4.57
2023-04-07T22:30:26.341Z,4.30
2023-04-07T22:32:52.587Z,5.03
2023-04-07T22:35:19.019Z,4.88
2023-04-07T22:37:45.482Z,5.60
2023-04-07T22:40:11.748Z,5.30
2023-04-07T22:42:38.019Z,5.68
2023-04-07T22:45:04.483Z,5.95
2023-04-07T22:47:30.763Z,6.40
2023-04-07T22:49:57.415Z,7.05
2023-04-07T22:52:23.676Z,7.00
2023-04-07T22:54:49.883Z,6.38
2023-04-07T22:57:16.458Z,7.22
2023-04-07T22:59:42.683Z,7.30
2023-04-07T23:02:09.180Z,7.63
2023-04-07T23:04:35.642Z,6.75
2023-04-07T23:07:01.980Z,7.55
2023-04-07T23:09:28.180Z,7.30
2023-04-07T23:11:54.393Z,6.80
2023-04-07T23:14:20.621Z,8.23
2023-04-07T23:16:46.913Z,8.07
2023-04-07T23:19:15.609Z,7.32
2023-04-07T23:21:42.594Z,7.78
2023-04-07T23:26:35.157Z,7.72
2023-04-07T23:29:01.408Z,8.35
2023-04-07T23:31:28.158Z,7.53
2023-04-07T23:33:54.469Z,7.20
2023-04-07T23:36:20.779Z,7.85
2023-04-07T23:38:47.140Z,7.97
2023-04-07T23:41:13.376Z,8.00
2023-04-07T23:43:39.641Z,9.00
2023-04-07T23:46:06.239Z,7.85
2023-04-07T23:48:32.571Z,8.07
2023-04-07T23:51:01.740Z,7.85
2023-04-07T23:53:28.011Z,8.70
2023-04-07T23:55:54.220Z,9.13
2023-04-07T23:58:20.449Z,10.38
